createdAt,value
2023-01-22T00:01:12.854Z,2.73
2023-01-22T00:03:41.199Z,3.20
2023-01-22T00:06:09.704Z,4.20
2023-01-22T00:08:36.920Z,4.33
2023-01-22T00:11:04.416Z,3.70
2023-01-22T00:13:31.918Z,3.03
2023-01-22T00:15:59.961Z,3.40
2023-01-22T00:18:27.330Z,2.77
2023-01-22T00:20:55.346Z,2.80
2023-01-22T00:23:23.094Z,2.80
2023-01-22T00:25:51.263Z,2.87
2023-01-22T00:28:18.446Z,3.20
2023-01-22T00:30:45.540Z,2.23
2023-01-22T00:33:12.703Z,2.03
2023-01-22T00:35:40.031Z,2.53
2023-01-22T00:38:07.194Z,2.27
2023-01-22T00:40:34.428Z,2.27
2023-01-22T00:43:01.596Z,2.20
2023-01-22T00:45:28.848Z,1.90
2023-01-22T00:47:56.104Z,2.07
2023-01-22T00:50:23.342Z,2.40
2023-01-22T00:52:50.457Z,1.80
2023-01-22T00:55:17.947Z,2.37
2023-01-22T00:57:45.105Z,2.07
2023-01-22T01:00:18.548Z,2.07
2023-01-22T01:03:04.470Z,2.17
2023-01-22T01:05:31.671Z,2.20
2023-01-22T01:07:58.794Z,3.00
2023-01-22T01:10:25.990Z,2.37
2023-01-22T01:12:53.132Z,2.63
2023-01-22T01:15:20.390Z,3.00
2023-01-22T01:17:47.567Z,3.40
2023-01-22T01:20:14.832Z,2.60
2023-01-22T01:22:41.969Z,2.80
2023-01-22T01:25:09.139Z,2.90
2023-01-22T01:27:36.324Z,2.37
2023-01-22T01:30:03.737Z,2.80
2023-01-22T01:32:30.898Z,2.53
2023-01-22T01:34:58.039Z,2.90
2023-01-22T01:37:25.271Z,3.60
2023-01-22T01:39:52.666Z,3.60
2023-01-22T01:42:30.203Z,3.10
2023-01-22T01:45:19.235Z,2.90
2023-01-22T01:47:48.501Z,2.30
2023-01-22T01:50:19.000Z,2.03
2023-01-22T01:52:46.492Z,2.00
2023-01-22T01:55:17.213Z,1.90
2023-01-22T01:57:45.452Z,2.30
2023-01-22T02:00:14.310Z,2.40
2023-01-22T02:02:41.815Z,2.30
2023-01-22T02:05:09.686Z,2.70
2023-01-22T02:07:37.650Z,2.30
2023-01-22T02:10:06.401Z,2.87
2023-01-22T02:12:34.216Z,2.43
2023-01-22T02:15:03.904Z,2.50
2023-01-22T02:17:31.082Z,2.60
2023-01-22T02:19:58.252Z,2.30
2023-01-22T02:22:31.263Z,2.50
2023-01-22T02:24:58.671Z,2.43
2023-01-22T02:27:26.111Z,2.10
2023-01-22T02:29:53.433Z,3.00
2023-01-22T02:32:20.679Z,2.50
2023-01-22T02:34:47.886Z,2.40
2023-01-22T02:37:15.031Z,2.30
2023-01-22T02:39:42.423Z,2.33
2023-01-22T02:42:09.984Z,2.07
2023-01-22T02:44:37.150Z,2.47
2023-01-22T02:47:04.834Z,2.90
2023-01-22T02:49:32.033Z,3.50
2023-01-22T02:51:59.201Z,3.80
2023-01-22T02:54:26.457Z,3.23
2023-01-22T02:56:53.647Z,2.73
2023-01-22T02:59:20.843Z,3.40
2023-01-22T03:01:48.133Z,3.50
2023-01-22T03:04:15.361Z,3.30
2023-01-22T03:06:44.556Z,2.70
2023-01-22T03:09:13.491Z,2.63
2023-01-22T03:11:42.048Z,3.07
2023-01-22T03:14:28.313Z,2.30
2023-01-22T03:17:15.259Z,2.20
2023-01-22T03:20:00.982Z,2.93
2023-01-22T03:22:29.064Z,2.60
2023-01-22T03:24:58.949Z,1.50
2023-01-22T03:27:28.699Z,2.20
2023-01-22T03:29:56.047Z,2.50
2023-01-22T03:32:23.290Z,1.77
2023-01-22T03:34:50.515Z,1.70
2023-01-22T03:37:17.784Z,0.90
2023-01-22T03:39:44.905Z,0.63
2023-01-22T03:42:12.073Z,0.60
2023-01-22T03:44:39.221Z,0.90
2023-01-22T03:47:06.398Z,0.60
2023-01-22T03:49:33.628Z,0.60
2023-01-22T03:52:00.763Z,0.57
2023-01-22T03:54:27.938Z,0.60
2023-01-22T03:56:55.340Z,0.63
2023-01-22T03:59:22.553Z,0.70
2023-01-22T04:01:50.904Z,0.73
2023-01-22T04:04:18.124Z,0.50
2023-01-22T04:06:45.273Z,0.60
2023-01-22T04:09:12.472Z,0.50
2023-01-22T04:11:39.575Z,0.60
2023-01-22T04:14:06.698Z,0.60
2023-01-22T04:16:34.005Z,0.50
2023-01-22T04:19:01.164Z,0.53
2023-01-22T04:21:28.287Z,0.60
2023-01-22T04:23:56.765Z,0.50
2023-01-22T04:26:23.921Z,0.60
2023-01-22T04:28:51.188Z,0.50
2023-01-22T04:31:18.416Z,0.50
2023-01-22T04:33:45.689Z,0.70
2023-01-22T04:36:12.877Z,1.37
2023-01-22T04:38:40.144Z,1.10
2023-01-22T04:41:07.351Z,0.93
2023-01-22T04:43:34.515Z,1.57
2023-01-22T04:46:01.739Z,0.70
2023-01-22T04:48:28.879Z,0.60
2023-01-22T04:50:56.278Z,0.60
2023-01-22T04:53:23.476Z,0.90
2023-01-22T04:55:50.728Z,0.90
2023-01-22T04:58:18.015Z,0.93
2023-01-22T05:00:45.208Z,0.80
2023-01-22T05:03:12.728Z,0.47
2023-01-22T05:05:39.843Z,0.70
2023-01-22T05:08:07.117Z,0.80
2023-01-22T05:10:34.338Z,0.70
2023-01-22T05:13:06.204Z,0.60
2023-01-22T05:15:34.382Z,0.70
2023-01-22T05:18:01.587Z,0.83
2023-01-22T05:20:28.869Z,0.70
2023-01-22T05:22:56.071Z,1.30
2023-01-22T05:25:23.230Z,1.80
2023-01-22T05:27:50.391Z,1.83
2023-01-22T05:30:17.952Z,1.70
2023-01-22T05:32:45.266Z,2.20
2023-01-22T05:35:12.589Z,2.03
2023-01-22T05:37:39.733Z,2.00
2023-01-22T05:40:07.673Z,2.20
2023-01-22T05:42:34.878Z,2.20
2023-01-22T05:45:02.146Z,2.07
2023-01-22T05:47:30.015Z,1.90
2023-01-22T05:49:57.441Z,1.67
2023-01-22T05:52:24.616Z,2.30
2023-01-22T05:54:51.802Z,1.87
2023-01-22T05:57:18.992Z,1.90
2023-01-22T05:59:46.174Z,2.00
2023-01-22T06:02:13.342Z,1.70
2023-01-22T06:04:40.519Z,2.00
2023-01-22T06:07:07.654Z,1.87
2023-01-22T06:09:35.048Z,1.53
2023-01-22T06:12:02.152Z,1.60
2023-01-22T06:14:29.357Z,1.90
2023-01-22T06:16:56.562Z,1.47
2023-01-22T06:19:23.784Z,1.37
2023-01-22T06:21:50.915Z,1.40
2023-01-22T06:24:19.039Z,1.70
2023-01-22T06:26:46.338Z,1.87
2023-01-22T06:29:13.804Z,1.67
2023-01-22T06:31:40.968Z,1.67
2023-01-22T06:34:09.056Z,1.47
2023-01-22T06:36:36.446Z,1.30
2023-01-22T06:39:03.836Z,1.30
2023-01-22T06:41:31.087Z,1.80
2023-01-22T06:43:58.453Z,1.60
2023-01-22T06:46:26.668Z,3.27
2023-01-22T06:48:53.807Z,1.57
2023-01-22T06:51:21.018Z,1.70
2023-01-22T06:53:48.149Z,1.27
2023-01-22T06:56:15.284Z,1.40
2023-01-22T06:58:42.467Z,1.60
2023-01-22T07:01:10.394Z,1.30
2023-01-22T07:03:37.742Z,1.50
2023-01-22T07:06:05.913Z,1.23
2023-01-22T07:08:34.127Z,1.17
2023-01-22T07:11:02.130Z,1.87
2023-01-22T07:13:29.542Z,1.77
2023-01-22T07:15:56.880Z,1.60
2023-01-22T07:18:24.708Z,1.53
2023-01-22T07:20:52.019Z,1.70
2023-01-22T07:23:19.182Z,1.67
2023-01-22T07:25:46.590Z,1.30
2023-01-22T07:28:15.391Z,1.27
2023-01-22T07:30:46.432Z,1.30
2023-01-22T07:33:15.149Z,1.70
2023-01-22T07:35:42.857Z,1.10
2023-01-22T07:38:10.594Z,3.30
2023-01-22T07:40:37.803Z,3.03
2023-01-22T07:43:06.782Z,3.33
2023-01-22T07:45:34.989Z,3.23
2023-01-22T07:48:02.756Z,2.30
2023-01-22T07:50:31.929Z,2.40
2023-01-22T07:53:00.739Z,2.37
2023-01-22T07:55:28.768Z,1.90
2023-01-22T07:58:06.596Z,1.80
2023-01-22T08:00:35.666Z,1.77
2023-01-22T08:03:06.793Z,0.90
2023-01-22T08:05:33.955Z,0.70
2023-01-22T08:08:01.134Z,0.70
2023-01-22T08:10:28.427Z,0.80
2023-01-22T08:12:55.701Z,0.90
2023-01-22T08:15:22.970Z,0.90
2023-01-22T08:17:51.304Z,0.77
2023-01-22T08:20:18.995Z,0.50
2023-01-22T08:22:46.442Z,0.70
2023-01-22T08:25:13.642Z,0.60
2023-01-22T08:27:40.961Z,0.63
2023-01-22T08:30:11.238Z,0.60
2023-01-22T08:32:41.331Z,0.60
2023-01-22T08:35:09.219Z,0.77
2023-01-22T08:37:36.489Z,0.90
2023-01-22T08:40:05.197Z,0.90
2023-01-22T08:42:32.485Z,1.70
2023-01-22T08:44:59.601Z,1.43
2023-01-22T08:47:27.364Z,1.47
2023-01-22T08:49:54.524Z,1.67
2023-01-22T08:52:21.681Z,1.80
2023-01-22T08:54:49.023Z,1.20
2023-01-22T08:57:16.396Z,0.90
2023-01-22T08:59:52.572Z,0.90
2023-01-22T09:02:28.062Z,0.87
2023-01-22T09:04:55.367Z,1.00
2023-01-22T09:07:22.549Z,0.90
2023-01-22T09:09:50.374Z,0.57
2023-01-22T09:12:17.597Z,0.50
2023-01-22T09:14:44.770Z,0.80
2023-01-22T09:17:12.043Z,0.80
2023-01-22T09:19:39.250Z,0.60
2023-01-22T09:22:07.614Z,0.87
2023-01-22T09:24:34.786Z,0.70
2023-01-22T09:27:01.949Z,0.70
2023-01-22T09:29:29.210Z,1.03
2023-01-22T09:31:57.095Z,0.70
2023-01-22T09:34:24.263Z,0.80
2023-01-22T09:36:51.479Z,1.93
2023-01-22T09:39:18.762Z,1.40
2023-01-22T09:41:57.501Z,1.83
2023-01-22T09:44:37.645Z,1.80
2023-01-22T09:47:24.900Z,1.87
2023-01-22T09:50:04.715Z,2.73
2023-01-22T09:52:34.887Z,2.70
2023-01-22T09:55:02.221Z,2.47
2023-01-22T09:57:32.068Z,2.67
2023-01-22T09:59:59.826Z,2.40
2023-01-22T10:02:42.616Z,2.57
2023-01-22T10:05:46.676Z,3.13
2023-01-22T10:08:17.966Z,2.30
2023-01-22T10:10:45.339Z,2.33
2023-01-22T10:13:21.480Z,1.50
2023-01-22T10:15:52.734Z,1.10
2023-01-22T10:18:34.979Z,1.00
2023-01-22T10:21:06.118Z,1.33
2023-01-22T10:23:34.566Z,1.27
2023-01-22T10:26:30.985Z,1.07
2023-01-22T10:29:03.753Z,1.10
2023-01-22T10:31:33.727Z,1.53
2023-01-22T10:34:12.980Z,1.43
2023-01-22T10:36:40.582Z,1.20
2023-01-22T10:39:15.807Z,1.30
2023-01-22T10:41:45.297Z,1.73
2023-01-22T10:44:24.758Z,2.20
2023-01-22T10:46:53.633Z,2.03
2023-01-22T10:49:23.053Z,2.47
2023-01-22T10:51:54.715Z,2.50
2023-01-22T10:54:41.632Z,2.10
2023-01-22T10:57:23.009Z,2.17
2023-01-22T11:00:10.955Z,2.27
2023-01-22T11:02:43.178Z,2.20
2023-01-22T11:05:34.364Z,1.80
2023-01-22T11:08:05.537Z,2.00
2023-01-22T11:10:55.719Z,1.80
2023-01-22T11:14:15.145Z,1.60
2023-01-22T11:16:43.862Z,1.40
2023-01-22T11:19:18.084Z,1.10
2023-01-22T11:21:51.547Z,1.27
2023-01-22T11:24:42.167Z,1.33
2023-01-22T11:27:40.568Z,1.40
2023-01-22T11:30:21.310Z,1.70
2023-01-22T11:33:24.224Z,1.80
2023-01-22T11:36:09.880Z,1.00
2023-01-22T11:38:51.726Z,1.17
2023-01-22T11:41:30.957Z,1.10
2023-01-22T11:44:34.318Z,2.30
2023-01-22T11:47:01.496Z,2.33
2023-01-22T11:49:37.585Z,2.73
2023-01-22T11:52:31.670Z,2.40
2023-01-22T11:55:41.965Z,4.77
2023-01-22T11:58:44.721Z,4.97
2023-01-22T12:01:33.816Z,5.27
2023-01-22T12:04:11.525Z,5.90
2023-01-22T12:07:16.068Z,6.27
2023-01-22T12:09:52.166Z,5.40
2023-01-22T12:12:30.192Z,4.10
2023-01-22T12:15:02.954Z,3.60
2023-01-22T12:17:58.093Z,3.90
2023-01-22T12:20:28.263Z,4.00
2023-01-22T12:23:33.834Z,3.70
2023-01-22T12:26:08.844Z,3.50
2023-01-22T12:29:14.256Z,2.60
2023-01-22T12:31:49.357Z,3.17
2023-01-22T12:34:29.843Z,4.07
2023-01-22T12:36:58.302Z,4.20
2023-01-22T12:39:38.224Z,3.90
2023-01-22T12:42:08.178Z,3.90
2023-01-22T12:44:55.366Z,3.00
2023-01-22T12:47:27.167Z,4.60
2023-01-22T12:49:54.349Z,3.70
2023-01-22T12:52:31.996Z,3.53
2023-01-22T12:55:00.557Z,3.90
2023-01-22T12:57:41.933Z,3.77
2023-01-22T13:00:36.773Z,3.30
2023-01-22T13:03:31.731Z,3.10
2023-01-22T13:06:01.162Z,2.73
2023-01-22T13:08:40.520Z,2.83
2023-01-22T13:11:11.744Z,2.90
2023-01-22T13:13:53.941Z,2.73
2023-01-22T13:16:37.855Z,2.90
2023-01-22T13:19:29.709Z,3.10
2023-01-22T13:22:00.976Z,3.20
2023-01-22T13:24:28.350Z,3.57
2023-01-22T13:27:01.235Z,3.73
2023-01-22T13:29:37.854Z,3.97
2023-01-22T13:32:16.215Z,3.07
2023-01-22T13:34:43.435Z,3.00
2023-01-22T13:37:41.810Z,2.50
2023-01-22T13:40:23.862Z,3.03
2023-01-22T13:42:51.841Z,4.07
2023-01-22T13:45:31.483Z,2.90
2023-01-22T13:48:03.841Z,3.70
2023-01-22T13:50:32.535Z,3.00
2023-01-22T13:53:02.004Z,2.70
2023-01-22T13:55:30.822Z,2.77
2023-01-22T13:58:00.757Z,2.00
2023-01-22T14:00:30.885Z,2.27
2023-01-22T14:02:59.184Z,2.40
2023-01-22T14:05:33.773Z,2.70
2023-01-22T14:08:13.426Z,2.20
2023-01-22T14:10:42.122Z,1.50
2023-01-22T14:13:11.706Z,1.67
2023-01-22T14:15:40.368Z,2.50
2023-01-22T14:18:13.397Z,2.30
2023-01-22T14:20:41.930Z,3.00
2023-01-22T14:23:09.156Z,2.20
2023-01-22T14:25:46.135Z,1.90
2023-01-22T14:28:13.572Z,2.10
2023-01-22T14:30:40.776Z,2.60
2023-01-22T14:33:25.082Z,1.97
2023-01-22T14:35:53.422Z,1.90
2023-01-22T14:38:20.899Z,2.00
2023-01-22T14:40:48.034Z,2.20
2023-01-22T14:43:15.656Z,2.53
2023-01-22T14:45:44.703Z,2.83
2023-01-22T14:48:21.100Z,2.87
2023-01-22T14:50:49.861Z,3.40
2023-01-22T14:53:18.321Z,2.93
2023-01-22T14:55:45.609Z,3.60
2023-01-22T14:58:13.122Z,3.40
2023-01-22T15:00:40.355Z,4.00
2023-01-22T15:03:07.628Z,3.30
2023-01-22T15:05:35.836Z,4.50
2023-01-22T15:08:03.204Z,5.07
2023-01-22T15:10:30.384Z,4.60
2023-01-22T15:12:57.568Z,4.60
2023-01-22T15:15:28.752Z,5.00
2023-01-22T15:17:57.302Z,4.63
2023-01-22T15:20:25.345Z,4.17
2023-01-22T15:22:52.700Z,4.10
2023-01-22T15:25:20.144Z,5.20
2023-01-22T15:27:47.467Z,4.60
2023-01-22T15:30:15.246Z,4.10
2023-01-22T15:32:42.537Z,3.33
2023-01-22T15:35:09.926Z,3.00
2023-01-22T15:37:37.331Z,2.93
2023-01-22T15:40:05.481Z,3.50
2023-01-22T15:42:35.598Z,3.70
2023-01-22T15:45:04.352Z,5.20
2023-01-22T15:47:31.517Z,3.43
2023-01-22T15:49:58.848Z,3.37
2023-01-22T15:52:25.967Z,3.23
2023-01-22T15:54:56.301Z,3.07
2023-01-22T15:57:23.475Z,3.00
2023-01-22T15:59:51.560Z,3.67
2023-01-22T16:02:18.952Z,3.57
2023-01-22T16:04:46.156Z,3.70
2023-01-22T16:07:13.343Z,3.70
2023-01-22T16:09:40.713Z,4.50
2023-01-22T16:12:08.045Z,4.40
2023-01-22T16:14:35.638Z,4.20
2023-01-22T16:17:02.799Z,4.17
2023-01-22T16:19:29.929Z,5.33
2023-01-22T16:21:57.041Z,5.70
2023-01-22T16:24:24.280Z,5.40
2023-01-22T16:26:51.403Z,6.30
2023-01-22T16:29:18.562Z,6.50
2023-01-22T16:31:45.726Z,5.90
2023-01-22T16:34:15.578Z,5.37
2023-01-22T16:36:43.449Z,4.60
2023-01-22T16:39:18.545Z,5.77
2023-01-22T16:41:51.503Z,4.50
2023-01-22T16:44:24.505Z,4.87
2023-01-22T16:46:57.117Z,4.90
2023-01-22T16:49:27.773Z,4.93
2023-01-22T16:51:57.177Z,5.03
2023-01-22T16:54:36.313Z,5.93
2023-01-22T16:57:06.531Z,6.33
2023-01-22T16:59:35.688Z,5.37
2023-01-22T17:02:05.278Z,7.00
2023-01-22T17:04:32.453Z,6.13
2023-01-22T17:07:00.548Z,7.43
2023-01-22T17:09:30.580Z,10.03
2023-01-22T17:12:04.257Z,12.40
2023-01-22T17:14:35.782Z,14.30
2023-01-22T17:17:04.873Z,15.00
2023-01-22T17:19:32.363Z,14.70
2023-01-22T17:21:59.781Z,7.53
2023-01-22T17:24:28.497Z,6.07
2023-01-22T17:26:58.000Z,6.17
2023-01-22T17:29:25.632Z,6.00
2023-01-22T17:31:52.946Z,5.90
2023-01-22T17:34:20.289Z,5.63
2023-01-22T17:36:47.674Z,6.07
2023-01-22T17:39:15.999Z,6.57
2023-01-22T17:41:44.071Z,7.23
2023-01-22T17:44:13.129Z,6.73
2023-01-22T17:46:41.887Z,8.43
2023-01-22T17:49:11.195Z,8.00
2023-01-22T17:51:38.831Z,7.63
2023-01-22T17:54:06.322Z,9.97
2023-01-22T17:56:40.204Z,9.40
2023-01-22T17:59:07.502Z,8.27
2023-01-22T18:01:36.775Z,9.47
2023-01-22T18:04:06.788Z,8.60
2023-01-22T18:06:35.931Z,9.07
2023-01-22T18:09:05.223Z,9.47
2023-01-22T18:11:33.592Z,10.10
2023-01-22T18:14:06.328Z,9.17
2023-01-22T18:16:36.295Z,8.97
2023-01-22T18:19:07.328Z,8.47
2023-01-22T18:21:36.870Z,9.10
2023-01-22T18:24:05.862Z,10.03
2023-01-22T18:26:34.295Z,10.67
2023-01-22T18:29:02.001Z,11.77
2023-01-22T18:31:30.110Z,11.10
2023-01-22T18:34:02.183Z,10.53
2023-01-22T18:36:39.746Z,10.80
2023-01-22T18:39:10.883Z,9.90
2023-01-22T18:41:40.178Z,10.30
2023-01-22T18:44:09.492Z,10.00
2023-01-22T18:46:39.188Z,10.67
2023-01-22T18:49:12.801Z,10.20
2023-01-22T18:51:42.046Z,10.40
2023-01-22T18:54:09.500Z,9.63
2023-01-22T18:56:38.507Z,9.97
2023-01-22T18:59:05.949Z,10.17
2023-01-22T19:01:37.093Z,9.47
2023-01-22T19:04:07.637Z,10.97
2023-01-22T19:06:37.110Z,10.37
2023-01-22T19:09:08.161Z,10.10
2023-01-22T19:11:37.941Z,10.70
2023-01-22T19:14:07.252Z,10.27
2023-01-22T19:16:35.170Z,10.33
2023-01-22T19:19:07.747Z,10.67
2023-01-22T19:21:35.515Z,9.90
2023-01-22T19:24:03.079Z,9.43
2023-01-22T19:26:33.121Z,9.30
2023-01-22T19:29:03.055Z,10.83
2023-01-22T19:31:33.956Z,9.67
2023-01-22T19:34:02.154Z,10.10
2023-01-22T19:36:31.775Z,11.50
2023-01-22T19:39:01.036Z,15.90
2023-01-22T19:41:28.761Z,15.80
2023-01-22T19:43:58.140Z,10.93
2023-01-22T19:46:28.979Z,12.57
2023-01-22T19:48:56.460Z,17.03
2023-01-22T19:51:26.750Z,19.57
2023-01-22T19:53:54.490Z,18.10
2023-01-22T19:56:27.579Z,21.23
2023-01-22T19:58:59.077Z,20.80
2023-01-22T20:01:26.761Z,19.40
2023-01-22T20:03:55.690Z,18.63
2023-01-22T20:06:23.487Z,19.70
2023-01-22T20:08:51.652Z,19.40
2023-01-22T20:11:18.929Z,16.47
2023-01-22T20:13:47.580Z,16.07
2023-01-22T20:16:22.382Z,16.27
2023-01-22T20:18:50.402Z,15.83
2023-01-22T20:21:18.977Z,16.77
2023-01-22T20:23:48.088Z,15.83
2023-01-22T20:26:17.432Z,17.50
2023-01-22T20:28:45.559Z,17.03
2023-01-22T20:31:17.350Z,16.97
2023-01-22T20:33:44.683Z,17.70
2023-01-22T20:36:15.156Z,17.80
2023-01-22T20:38:44.689Z,17.93
2023-01-22T20:41:11.977Z,18.07
2023-01-22T20:43:40.725Z,18.03
2023-01-22T20:46:17.189Z,15.93
2023-01-22T20:48:45.487Z,13.67
2023-01-22T20:51:16.274Z,11.37
2023-01-22T20:53:44.532Z,14.13
2023-01-22T20:56:14.445Z,10.67
2023-01-22T20:58:42.246Z,7.70
2023-01-22T21:01:17.071Z,7.53
2023-01-22T21:03:45.183Z,8.00
2023-01-22T21:06:14.498Z,8.87
2023-01-22T21:08:42.729Z,11.97
2023-01-22T21:11:12.738Z,13.60
2023-01-22T21:13:40.640Z,14.53
2023-01-22T21:16:14.343Z,15.57
2023-01-22T21:18:44.312Z,14.97
2023-01-22T21:21:20.885Z,15.63
2023-01-22T21:23:49.901Z,16.10
2023-01-22T21:26:19.415Z,17.20
2023-01-22T21:28:48.365Z,15.07
2023-01-22T21:31:18.723Z,17.33
2023-01-22T21:33:47.031Z,16.17
2023-01-22T21:36:18.279Z,14.93
2023-01-22T21:38:49.321Z,14.30
2023-01-22T21:41:19.387Z,13.77
2023-01-22T21:44:06.011Z,15.33
2023-01-22T21:46:42.779Z,14.20
2023-01-22T21:49:17.909Z,12.70
2023-01-22T21:51:59.164Z,12.87
2023-01-22T21:54:34.883Z,12.87
2023-01-22T21:57:03.141Z,13.40
2023-01-22T21:59:30.665Z,11.50
2023-01-22T22:01:58.265Z,11.30
2023-01-22T22:04:27.344Z,10.63
2023-01-22T22:06:54.967Z,9.70
2023-01-22T22:09:26.697Z,10.30
2023-01-22T22:11:59.166Z,12.40
2023-01-22T22:14:26.720Z,10.90
2023-01-22T22:16:54.309Z,10.60
2023-01-22T22:19:23.309Z,11.30
2023-01-22T22:21:51.225Z,9.60
2023-01-22T22:24:19.384Z,8.60
2023-01-22T22:26:46.644Z,7.93
2023-01-22T22:29:13.788Z,7.60
2023-01-22T22:31:40.974Z,7.50
2023-01-22T22:34:08.129Z,7.70
2023-01-22T22:36:35.356Z,9.57
2023-01-22T22:39:03.180Z,10.17
2023-01-22T22:41:32.879Z,10.97
2023-01-22T22:44:00.317Z,10.53
2023-01-22T22:46:30.659Z,11.47
2023-01-22T22:49:00.316Z,8.80
2023-01-22T22:51:31.721Z,7.40
2023-01-22T22:54:02.734Z,6.47
2023-01-22T22:56:30.812Z,5.10
2023-01-22T22:58:59.538Z,4.97
2023-01-22T23:01:28.043Z,4.80
2023-01-22T23:03:55.362Z,5.00
2023-01-22T23:06:26.385Z,5.93
2023-01-22T23:08:55.908Z,5.07
2023-01-22T23:11:26.324Z,4.47
2023-01-22T23:13:53.547Z,4.50
2023-01-22T23:16:22.450Z,5.03
2023-01-22T23:18:51.941Z,4.30
2023-01-22T23:21:24.103Z,4.47
2023-01-22T23:23:52.902Z,4.13
2023-01-22T23:26:26.583Z,4.53
2023-01-22T23:28:57.417Z,4.53
2023-01-22T23:31:26.368Z,4.50
2023-01-22T23:33:55.326Z,4.10
2023-01-22T23:36:22.869Z,4.20
2023-01-22T23:38:50.087Z,3.47
2023-01-22T23:41:19.199Z,3.97
2023-01-22T23:43:46.692Z,3.53
2023-01-22T23:46:21.001Z,3.80
2023-01-22T23:48:49.017Z,3.20
2023-01-22T23:51:17.449Z,3.13
2023-01-22T23:53:52.875Z,2.93
2023-01-22T23:56:22.208Z,2.43
2023-01-22T23:58:49.823Z,2.50
